Time;durP1;ratioP1;P1;durP2;ratioP2;P2;SDS_P1;SDS_P2;PMS_P1;PMS_P2;Temp;Humidity;BMP_temperature;BMP_pressure;BME280_temperature;BME280_humidity;BME280_pressure;Samples;Min_cycle;Max_cycle;Signal;HPM_P1;HPM_P2
2023/12/31 00:00:34;;;;;;;2.53;0.90;;;;;;;20.73;45.23;100380.03;5013660;28;96944;-82
2023/12/31 00:02:59;;;;;;;2.72;0.90;;;;;;;20.74;45.08;100396.78;5010659;28;96863;-82
2023/12/31 00:05:26;;;;;;;2.00;0.63;;;;;;;20.76;45.12;100388.78;5009368;28;97276;-82
2023/12/31 00:07:52;;;;;;;1.70;0.80;;;;;;;20.74;45.34;100386.19;5008153;28;97622;-82
2023/12/31 00:10:17;;;;;;;3.50;0.80;;;;;;;20.75;45.40;100384.38;5009651;28;96953;-82
2023/12/31 00:12:47;;;;;;;2.55;1.00;;;;;;;20.77;45.00;100369.31;5008963;28;97619;-82
2023/12/31 00:15:13;;;;;;;3.60;0.95;;;;;;;20.76;45.26;100373.75;5008761;28;97537;-83
2023/12/31 00:17:39;;;;;;;2.38;0.80;;;;;;;20.78;45.12;100376.34;5007973;28;98908;-82
2023/12/31 00:20:05;;;;;;;2.33;0.82;;;;;;;20.76;45.05;100362.28;5024225;28;122950;-82
2023/12/31 00:22:30;;;;;;;1.27;0.80;;;;;;;20.76;45.01;100352.53;5012520;27;96804;-82
2023/12/31 00:24:56;;;;;;;2.00;0.80;;;;;;;20.77;45.10;100348.13;5021320;28;96940;-82
2023/12/31 00:27:21;;;;;;;1.70;1.02;;;;;;;20.77;45.33;100342.81;5010571;28;97519;-81
2023/12/31 00:29:48;;;;;;;2.42;0.65;;;;;;;20.73;44.93;100337.63;5009704;28;106721;-82
2023/12/31 00:32:15;;;;;;;2.00;0.73;;;;;;;20.73;45.26;100327.03;5006636;28;97245;-82
2023/12/31 00:34:40;;;;;;;1.88;0.75;;;;;;;20.73;45.14;100312.94;5009096;28;97238;-82
2023/12/31 00:37:07;;;;;;;1.77;1.00;;;;;;;20.71;45.08;100305.03;5011945;28;99361;-82
2023/12/31 00:39:32;;;;;;;1.80;1.00;;;;;;;20.75;45.26;100299.59;5008597;28;100350;-82
2023/12/31 00:41:57;;;;;;;1.75;1.00;;;;;;;20.75;45.12;100294.28;5010578;28;97198;-81
2023/12/31 00:44:23;;;;;;;2.58;1.02;;;;;;;20.75;45.12;100284.56;5010073;28;115519;-82
2023/12/31 00:46:48;;;;;;;1.95;0.80;;;;;;;20.75;45.27;100283.69;5006556;28;99097;-82
2023/12/31 00:49:14;;;;;;;1.40;0.77;;;;;;;20.76;45.00;100280.13;5009237;28;114368;-81
2023/12/31 00:51:39;;;;;;;1.60;0.50;;;;;;;20.73;45.34;100274.03;4992424;28;96831;-82
2023/12/31 00:54:05;;;;;;;2.78;1.08;;;;;;;20.72;45.09;100274.94;5008564;28;96903;-82
2023/12/31 00:56:30;;;;;;;1.42;0.80;;;;;;;20.72;44.99;100269.63;5007923;28;97699;-82
2023/12/31 00:58:56;;;;;;;2.15;0.98;;;;;;;20.74;45.22;100266.94;4991337;28;114080;-82
2023/12/31 01:01:21;;;;;;;2.40;0.63;;;;;;;20.75;44.85;100265.13;5010033;28;97470;-82
2023/12/31 01:03:47;;;;;;;2.40;0.98;;;;;;;20.75;44.88;100255.41;5011871;28;96819;-82
2023/12/31 01:06:12;;;;;;;1.98;0.95;;;;;;;20.73;45.08;100247.53;5007822;28;98704;-82
2023/12/31 01:08:38;;;;;;;1.92;0.93;;;;;;;20.73;44.89;100236.91;4991629;28;98921;-82
2023/12/31 01:11:03;;;;;;;1.65;0.80;;;;;;;20.75;45.42;100234.22;5024998;28;116239;-82
2023/12/31 01:13:29;;;;;;;1.80;0.77;;;;;;;20.73;45.29;100220.16;5011318;28;96873;-81
2023/12/31 01:15:54;;;;;;;1.85;1.10;;;;;;;20.71;45.13;100228.19;5019265;28;99152;-82
2023/12/31 01:18:20;;;;;;;1.58;0.95;;;;;;;20.72;44.90;100219.28;5019593;28;123878;-82
2023/12/31 01:20:45;;;;;;;1.67;0.77;;;;;;;20.72;44.73;100213.97;5015928;27;96668;-82
2023/12/31 01:23:11;;;;;;;1.50;0.85;;;;;;;20.74;45.09;100216.56;5013055;28;97622;-82
2023/12/31 01:25:36;;;;;;;1.27;0.52;;;;;;;20.72;45.00;100200.72;5010727;28;97235;-82
2023/12/31 01:28:02;;;;;;;1.45;0.90;;;;;;;20.72;44.81;100200.72;5018630;28;122063;-82
2023/12/31 01:30:28;;;;;;;1.50;0.70;;;;;;;20.75;44.72;100204.19;5001097;28;96776;-82
2023/12/31 01:32:54;;;;;;;1.55;0.82;;;;;;;20.72;44.79;100187.47;5007195;28;97479;-82
2023/12/31 01:35:20;;;;;;;2.63;0.82;;;;;;;20.73;44.82;100191.88;5017785;28;97825;-82
2023/12/31 01:37:47;;;;;;;1.42;1.00;;;;;;;20.73;44.79;100188.38;4996873;28;99061;-81
2023/12/31 01:40:12;;;;;;;1.95;0.95;;;;;;;20.75;44.87;100188.28;5019468;28;96924;-82
2023/12/31 01:42:38;;;;;;;1.42;0.63;;;;;;;20.73;44.76;100180.41;4997284;28;97446;-82
2023/12/31 01:45:04;;;;;;;1.42;0.60;;;;;;;20.72;44.75;100184.84;5002955;28;100567;-82
2023/12/31 01:47:32;;;;;;;2.15;0.73;;;;;;;20.72;44.68;100183.97;5023025;28;98608;-82
2023/12/31 01:49:57;;;;;;;1.52;0.80;;;;;;;20.72;44.91;100181.31;5011377;28;96759;-82
2023/12/31 01:52:24;;;;;;;1.05;0.60;;;;;;;20.73;44.74;100175.13;5008379;28;96771;-81
2023/12/31 01:54:54;;;;;;;1.00;0.60;;;;;;;20.72;44.83;100173.38;5007171;28;100358;-82
2023/12/31 01:57:24;;;;;;;1.50;0.82;;;;;;;20.72;45.10;100176.88;5000265;28;97178;-82
2023/12/31 01:59:51;;;;;;;1.08;0.60;;;;;;;20.73;44.79;100175.13;4993437;28;97689;-82
2023/12/31 02:02:16;;;;;;;1.25;0.85;;;;;;;20.73;45.07;100161.88;5017608;28;96880;-83
2023/12/31 02:04:42;;;;;;;1.83;0.70;;;;;;;20.72;44.80;100155.69;5010911;28;125950;-82
2023/12/31 02:07:08;;;;;;;1.85;0.85;;;;;;;20.72;44.80;100150.38;5004370;28;98486;-82
2023/12/31 02:09:35;;;;;;;3.15;0.80;;;;;;;20.72;44.67;100139.78;5001088;28;97138;-82
2023/12/31 02:12:00;;;;;;;1.60;0.73;;;;;;;20.73;44.87;100138.88;5017206;28;96863;-82
2023/12/31 02:14:26;;;;;;;1.80;0.70;;;;;;;20.72;44.46;100129.19;5011940;28;100049;-82
2023/12/31 02:16:51;;;;;;;1.58;0.80;;;;;;;20.73;45.09;100124.78;5012591;28;98053;-82
2023/12/31 02:19:16;;;;;;;1.70;0.82;;;;;;;20.75;44.62;100122.03;4993631;28;97448;-83
2023/12/31 02:21:42;;;;;;;1.10;0.60;;;;;;;20.72;44.80;100118.59;5016791;28;111020;-82
2023/12/31 02:24:11;;;;;;;1.15;0.65;;;;;;;20.72;44.71;100110.63;5012167;28;96637;-82
2023/12/31 02:26:37;;;;;;;1.33;0.70;;;;;;;20.71;44.70;100108.94;5021185;27;99180;-81
2023/12/31 02:29:02;;;;;;;1.65;0.60;;;;;;;20.73;44.69;100099.13;5011627;28;99258;-82
2023/12/31 02:31:27;;;;;;;1.20;0.63;;;;;;;20.72;44.87;100094.72;5012511;28;96817;-82
2023/12/31 02:33:53;;;;;;;1.15;0.60;;;;;;;20.73;44.86;100098.28;5023518;28;121221;-82
2023/12/31 02:36:18;;;;;;;1.67;0.75;;;;;;;20.71;44.60;100090.38;5016753;27;119152;-82
2023/12/31 02:38:43;;;;;;;2.33;0.93;;;;;;;20.72;44.69;100085.94;5024189;28;96712;-81
2023/12/31 02:41:09;;;;;;;1.15;0.75;;;;;;;20.71;44.76;100087.72;5027415;28;96612;-82
2023/12/31 02:43:34;;;;;;;1.60;0.73;;;;;;;20.71;44.88;100085.06;5023382;28;127161;-81
2023/12/31 02:45:59;;;;;;;0.85;0.60;;;;;;;20.71;44.81;100063.88;5011920;28;127456;-82
2023/12/31 02:48:25;;;;;;;0.95;0.50;;;;;;;20.72;44.87;100054.13;5020061;28;117768;-82
2023/12/31 02:50:50;;;;;;;1.95;1.00;;;;;;;20.71;44.54;100049.75;5022112;27;96903;-81
2023/12/31 02:53:15;;;;;;;1.60;0.68;;;;;;;20.72;44.54;100047.03;5016422;28;118090;-82
2023/12/31 02:55:41;;;;;;;1.50;0.80;;;;;;;20.71;44.63;100045.31;5016699;28;97669;-81
2023/12/31 02:58:07;;;;;;;1.10;0.70;;;;;;;20.72;44.55;100039.09;5013787;28;117405;-82
2023/12/31 03:00:32;;;;;;;1.73;0.70;;;;;;;20.71;44.83;100037.38;4998262;28;97820;-81
2023/12/31 03:02:58;;;;;;;1.92;0.70;;;;;;;20.71;44.66;100026.78;4999145;28;99075;-82
2023/12/31 03:05:23;;;;;;;2.25;0.60;;;;;;;20.72;44.74;100025.84;5020563;28;99531;-81
2023/12/31 03:07:48;;;;;;;1.75;0.77;;;;;;;20.72;44.61;100014.38;5018214;28;96799;-82
2023/12/31 03:10:14;;;;;;;1.17;0.70;;;;;;;20.73;44.73;100008.16;5024963;27;97594;-82
2023/12/31 03:12:39;;;;;;;1.23;0.77;;;;;;;20.72;44.63;100012.59;5018143;28;99713;-82
2023/12/31 03:15:05;;;;;;;1.73;0.60;;;;;;;20.71;44.93;100010.88;5024172;28;129009;-81
2023/12/31 03:17:30;;;;;;;1.58;0.63;;;;;;;20.71;44.91;100000.28;5021435;28;96789;-82
2023/12/31 03:19:57;;;;;;;1.38;0.60;;;;;;;20.70;44.49;100000.34;5025079;27;96963;-82
2023/12/31 03:22:22;;;;;;;1.60;0.80;;;;;;;20.72;44.69;100009.09;5001127;28;99202;-81
2023/12/31 03:24:48;;;;;;;2.22;0.82;;;;;;;20.72;44.57;99996.69;5024143;28;123097;-82
2023/12/31 03:27:13;;;;;;;0.93;0.77;;;;;;;20.72;44.70;99980.78;5015918;28;97606;-82
2023/12/31 03:29:38;;;;;;;1.45;0.77;;;;;;;20.72;44.53;99974.63;5023499;28;96951;-81
2023/12/31 03:32:04;;;;;;;1.90;0.77;;;;;;;20.71;44.76;99964.94;5002215;28;128733;-82
2023/12/31 03:34:30;;;;;;;1.88;0.50;;;;;;;20.71;44.69;99955.22;5021248;27;97228;-82
2023/12/31 03:36:56;;;;;;;1.38;0.60;;;;;;;20.72;44.68;99962.22;5019084;28;98094;-82
2023/12/31 03:39:22;;;;;;;1.35;0.60;;;;;;;20.72;44.52;99951.63;5019523;28;96639;-82
2023/12/31 03:41:50;;;;;;;1.63;0.68;;;;;;;20.72;44.47;99941.03;5016448;28;99065;-82
2023/12/31 03:44:15;;;;;;;1.08;0.60;;;;;;;20.73;44.81;99933.97;5021758;28;126776;-82
2023/12/31 03:46:42;;;;;;;0.65;0.40;;;;;;;20.72;44.53;99930.44;5021271;28;97178;-81
2023/12/31 03:49:07;;;;;;;1.20;0.50;;;;;;;20.72;44.37;99914.53;5015335;28;96848;-82
2023/12/31 03:51:33;;;;;;;1.73;0.82;;;;;;;20.73;44.43;99907.47;4996808;28;100338;-82
2023/12/31 03:53:58;;;;;;;1.30;0.70;;;;;;;20.73;44.35;99895.06;5014648;28;103118;-81
2023/12/31 03:56:24;;;;;;;1.90;0.63;;;;;;;20.73;44.74;99891.56;4997316;28;97523;-82
2023/12/31 03:58:50;;;;;;;1.35;0.85;;;;;;;20.73;44.75;99903.03;5015298;28;96976;-82
2023/12/31 04:01:15;;;;;;;1.30;0.50;;;;;;;20.72;44.47;99890.69;5013184;28;97122;-82
2023/12/31 04:03:41;;;;;;;2.00;0.93;;;;;;;20.71;44.49;99875.75;4994038;28;118187;-82
2023/12/31 04:06:07;;;;;;;1.00;0.70;;;;;;;20.71;44.61;99867.78;5015926;28;96643;-82
2023/12/31 04:08:33;;;;;;;1.08;0.60;;;;;;;20.72;44.61;99866.00;5016173;28;96778;-82
2023/12/31 04:10:58;;;;;;;0.80;0.50;;;;;;;20.72;44.51;99860.69;4994208;28;98717;-82
2023/12/31 04:13:23;;;;;;;1.20;0.63;;;;;;;20.72;44.53;99863.34;4995626;28;106333;-82
2023/12/31 04:15:49;;;;;;;1.45;0.98;;;;;;;20.73;44.65;99846.53;5015207;28;97444;-82
2023/12/31 04:18:14;;;;;;;1.40;0.93;;;;;;;20.72;44.31;99842.13;5013365;28;97188;-82
2023/12/31 04:20:39;;;;;;;1.15;0.82;;;;;;;20.73;44.54;99836.78;5013268;28;126725;-82
2023/12/31 04:23:05;;;;;;;1.02;0.60;;;;;;;20.72;44.60;99827.09;5021590;28;124283;-82
2023/12/31 04:25:30;;;;;;;1.00;0.57;;;;;;;20.73;44.38;99814.72;5026994;28;111295;-82
2023/12/31 04:27:56;;;;;;;1.40;0.75;;;;;;;20.73;44.39;99814.72;5017099;27;97056;-82
2023/12/31 04:30:22;;;;;;;1.45;0.63;;;;;;;20.71;44.46;99812.13;5021647;28;100277;-81
2023/12/31 04:32:50;;;;;;;1.50;0.70;;;;;;;20.71;44.47;99813.91;5011293;28;98083;-82
2023/12/31 04:35:18;;;;;;;0.93;0.73;;;;;;;20.72;44.44;99810.34;5026388;28;115716;-82
2023/12/31 04:37:50;;;;;;;1.10;0.50;;;;;;;20.73;44.59;99802.31;4990065;28;97220;-82
2023/12/31 04:40:16;;;;;;;;;;;;;;;20.68;44.31;99795.53;4993312;28;97704;-82
2023/12/31 04:42:42;;;;;;;1.40;0.50;;;;;;;20.72;44.22;99789.16;4993773;28;96816;-81
2023/12/31 04:45:09;;;;;;;1.20;0.50;;;;;;;20.72;44.33;99776.75;4993137;28;97765;-82
2023/12/31 04:47:35;;;;;;;1.27;0.63;;;;;;;20.72;44.47;99773.25;5012422;28;97088;-82
2023/12/31 04:50:02;;;;;;;1.20;0.63;;;;;;;20.71;44.34;99776.81;5015931;28;97516;-82
2023/12/31 04:52:27;;;;;;;0.93;0.60;;;;;;;20.71;44.43;99775.03;4993956;28;98338;-82
2023/12/31 04:54:53;;;;;;;0.77;0.50;;;;;;;20.71;44.42;99779.47;5009339;28;96691;-81
2023/12/31 04:57:18;;;;;;;1.10;0.60;;;;;;;20.71;44.23;99775.03;5021518;27;99935;-81
2023/12/31 04:59:43;;;;;;;0.95;0.60;;;;;;;20.71;44.20;99759.16;5005725;28;100703;-82
2023/12/31 05:02:09;;;;;;;1.92;0.70;;;;;;;20.71;44.41;99759.16;5023141;28;126167;-82
2023/12/31 05:04:34;;;;;;;1.00;0.55;;;;;;;20.71;44.47;99751.19;5014437;28;97029;-81
2023/12/31 05:06:59;;;;;;;1.08;0.60;;;;;;;20.71;44.26;99753.84;5010460;28;117921;-82
2023/12/31 05:09:25;;;;;;;1.13;0.60;;;;;;;20.71;44.40;99747.66;5010974;28;96776;-82
2023/12/31 05:11:50;;;;;;;0.90;0.50;;;;;;;20.71;44.08;99737.94;5012192;28;124052;-82
2023/12/31 05:14:16;;;;;;;1.67;0.70;;;;;;;20.71;44.31;99737.94;5015097;28;119586;-82
2023/12/31 05:16:41;;;;;;;1.15;0.73;;;;;;;20.71;44.53;99726.47;5027083;27;96743;-82
2023/12/31 05:19:07;;;;;;;1.13;0.60;;;;;;;20.70;44.31;99720.31;5018024;28;96703;-81
2023/12/31 05:21:32;;;;;;;1.83;0.60;;;;;;;20.71;44.20;99708.81;5020168;28;103208;-82
2023/12/31 05:23:57;;;;;;;1.95;0.60;;;;;;;20.71;44.23;99708.81;5018407;28;118175;-82
2023/12/31 05:26:23;;;;;;;0.88;0.50;;;;;;;20.72;44.35;99712.31;5025832;28;96880;-82
2023/12/31 05:28:48;;;;;;;1.27;0.63;;;;;;;20.72;44.33;99710.50;5020462;28;98351;-82
2023/12/31 05:31:13;;;;;;;0.95;0.63;;;;;;;20.71;44.44;99698.22;5022654;28;126451;-82
2023/12/31 05:33:41;;;;;;;1.67;0.73;;;;;;;20.71;44.31;99695.56;5007321;27;116570;-82
2023/12/31 05:36:06;;;;;;;0.80;0.55;;;;;;;20.72;44.13;99684.00;5016102;28;96897;-82
2023/12/31 05:38:32;;;;;;;1.08;0.50;;;;;;;20.72;44.07;99676.06;5022037;27;97436;-83
2023/12/31 05:40:57;;;;;;;0.98;0.55;;;;;;;20.73;44.03;99679.59;5023113;28;99303;-82
2023/12/31 05:43:22;;;;;;;0.90;0.50;;;;;;;20.71;44.29;99671.72;5010806;28;96764;-81
2023/12/31 05:45:48;;;;;;;0.77;0.57;;;;;;;20.73;44.39;99672.50;5023815;28;111598;-82
2023/12/31 05:48:14;;;;;;;1.48;0.55;;;;;;;20.73;44.36;99669.84;5008544;28;100671;-82
2023/12/31 05:50:39;;;;;;;1.73;0.77;;;;;;;20.72;44.15;99670.75;5018591;28;96835;-81
2023/12/31 05:53:05;;;;;;;1.40;0.50;;;;;;;20.72;44.14;99651.34;5012226;28;97051;-82
2023/12/31 05:55:31;;;;;;;0.80;0.50;;;;;;;20.71;44.12;99634.59;4988142;28;96785;-82
2023/12/31 05:57:57;;;;;;;1.23;0.80;;;;;;;20.72;44.35;99641.59;4993234;28;100313;-82
2023/12/31 06:00:23;;;;;;;1.10;0.57;;;;;;;20.73;44.15;99653.94;5013978;28;96820;-81
2023/12/31 06:02:48;;;;;;;2.03;0.60;;;;;;;20.73;44.32;99634.53;5014373;28;96726;-82
2023/12/31 06:05:15;;;;;;;1.23;0.65;;;;;;;20.71;44.23;99631.97;5011857;28;96979;-82
2023/12/31 06:07:41;;;;;;;1.58;0.63;;;;;;;20.72;43.99;99635.47;5022621;27;97503;-82
2023/12/31 06:10:07;;;;;;;0.90;0.68;;;;;;;20.72;44.15;99631.00;5011295;28;97693;-81
2023/12/31 06:12:32;;;;;;;1.13;0.70;;;;;;;20.72;44.21;99617.75;5015689;28;96852;-82
2023/12/31 06:15:06;;;;;;;0.95;0.73;;;;;;;20.73;44.06;99626.59;5010452;28;97052;-82
2023/12/31 06:17:41;;;;;;;1.73;0.82;;;;;;;20.71;44.04;99626.66;4991585;28;99996;-81
2023/12/31 06:20:08;;;;;;;1.52;0.60;;;;;;;20.72;44.33;99636.31;4984664;28;98569;-82
2023/12/31 06:22:34;;;;;;;1.05;0.63;;;;;;;20.72;44.32;99617.75;4993862;28;97280;-81
2023/12/31 06:24:59;;;;;;;1.10;0.90;;;;;;;20.71;44.28;99618.72;4994417;28;97174;-82
2023/12/31 06:27:30;;;;;;;0.80;0.50;;;;;;;20.71;44.01;99610.75;5014369;28;125472;-82
2023/12/31 06:29:56;;;;;;;1.25;0.80;;;;;;;20.70;44.06;99593.13;4997586;28;98034;-82
2023/12/31 06:32:21;;;;;;;1.45;0.70;;;;;;;20.71;43.90;99599.28;5013034;28;97243;-82
2023/12/31 06:34:47;;;;;;;1.02;0.60;;;;;;;20.72;44.09;99585.13;5019423;27;96903;-81
2023/12/31 06:37:12;;;;;;;1.70;0.70;;;;;;;20.71;43.88;99600.16;5009189;28;123392;-81
2023/12/31 06:39:41;;;;;;;1.70;0.60;;;;;;;20.70;44.08;99603.75;5011357;28;97857;-82
2023/12/31 06:42:06;;;;;;;1.27;0.73;;;;;;;20.71;44.09;99608.13;5011151;28;96607;-82
2023/12/31 06:44:31;;;;;;;1.05;0.57;;;;;;;20.72;44.25;99609.81;5010766;28;116906;-82
2023/12/31 06:46:57;;;;;;;1.50;0.68;;;;;;;20.72;44.17;99595.72;5003270;28;125594;-82
2023/12/31 06:49:22;;;;;;;0.90;0.60;;;;;;;20.72;44.26;99588.63;5003602;28;96723;-82
2023/12/31 06:51:47;;;;;;;1.42;0.73;;;;;;;20.72;43.97;99585.13;5011598;28;115953;-81
2023/12/31 06:54:13;;;;;;;1.38;0.60;;;;;;;20.72;43.97;99575.38;5015452;28;96980;-81
2023/12/31 06:56:39;;;;;;;1.63;0.80;;;;;;;20.72;43.86;99578.00;5014831;28;97879;-81
2023/12/31 06:59:04;;;;;;;1.05;0.60;;;;;;;20.72;44.16;99564.78;5014790;28;97624;-81
2023/12/31 07:01:29;;;;;;;1.67;0.60;;;;;;;20.72;44.14;99567.41;5010386;28;116712;-81
2023/12/31 07:03:55;;;;;;;1.23;0.60;;;;;;;20.72;43.93;99561.28;5013379;28;117682;-82
2023/12/31 07:06:21;;;;;;;1.10;0.75;;;;;;;20.71;43.81;99549.81;5008718;28;106706;-81
2023/12/31 07:08:46;;;;;;;1.58;0.80;;;;;;;20.71;43.80;99547.19;5005066;28;96707;-82
2023/12/31 07:11:13;;;;;;;0.98;0.55;;;;;;;20.72;43.89;99553.31;5004371;28;96838;-82
2023/12/31 07:13:39;;;;;;;1.13;0.60;;;;;;;20.70;43.88;99540.16;5015481;28;98847;-82
2023/12/31 07:16:04;;;;;;;1.17;0.70;;;;;;;20.70;44.10;99537.50;5009400;28;103857;-82
2023/12/31 07:18:29;;;;;;;1.55;0.70;;;;;;;20.71;44.09;99538.34;5002935;28;125976;-82
2023/12/31 07:20:55;;;;;;;0.73;0.50;;;;;;;20.70;43.77;99537.50;5021769;28;96982;-82
2023/12/31 07:23:21;;;;;;;0.85;0.50;;;;;;;20.72;44.21;99534.78;5006227;28;97103;-82
2023/12/31 07:25:59;;;;;;;1.15;0.60;;;;;;;20.70;43.73;99531.34;4994360;28;97464;-82
2023/12/31 07:28:25;;;;;;;0.98;0.50;;;;;;;20.70;43.75;99521.59;5012469;28;98219;-82
2023/12/31 07:30:51;;;;;;;1.33;0.75;;;;;;;20.71;44.12;99518.03;5008931;28;115899;-82
2023/12/31 07:33:17;;;;;;;1.05;0.55;;;;;;;20.71;43.79;99520.69;5014726;28;96803;-82
2023/12/31 07:35:42;;;;;;;1.38;0.75;;;;;;;20.72;44.02;99519.72;4996802;28;97042;-82
2023/12/31 07:38:08;;;;;;;1.17;0.60;;;;;;;20.73;44.01;99516.16;5006548;28;97159;-82
2023/12/31 07:40:34;;;;;;;1.17;0.60;;;;;;;20.72;44.15;99509.13;5010051;28;96777;-82
2023/12/31 07:43:00;;;;;;;1.25;0.80;;;;;;;20.71;43.93;99512.72;5019510;28;97175;-82
2023/12/31 07:45:25;;;;;;;2.42;1.02;;;;;;;20.69;44.02;99511.91;5024678;28;97413;-82
2023/12/31 07:47:53;;;;;;;1.20;0.75;;;;;;;20.70;43.87;99508.34;5013641;27;97185;-82
2023/12/31 07:50:18;;;;;;;0.75;0.50;;;;;;;20.69;43.90;99509.28;5011219;28;97827;-82
2023/12/31 07:52:44;;;;;;;1.13;0.60;;;;;;;20.69;44.20;99506.63;5004912;28;97113;-82
2023/12/31 07:55:09;;;;;;;0.90;0.63;;;;;;;20.70;44.04;99499.56;5005474;28;128260;-82
2023/12/31 07:57:35;;;;;;;0.95;0.70;;;;;;;20.70;44.00;99496.91;5006954;28;97288;-82
2023/12/31 08:00:04;;;;;;;1.20;0.77;;;;;;;20.70;43.77;99487.16;5008378;28;97288;-81
2023/12/31 08:02:37;;;;;;;2.08;0.80;;;;;;;20.70;43.90;99489.81;5000543;28;96980;-82
2023/12/31 08:05:03;;;;;;;1.15;0.55;;;;;;;20.71;43.61;99485.34;5001022;28;97979;-82
2023/12/31 08:07:29;;;;;;;1.30;0.73;;;;;;;20.70;43.95;99476.56;4986583;28;100889;-82
2023/12/31 08:09:55;;;;;;;1.50;0.70;;;;;;;20.69;43.70;99477.47;5002173;28;98021;-82
2023/12/31 08:12:20;;;;;;;1.95;0.70;;;;;;;20.70;43.88;99479.22;5001956;28;96688;-82
2023/12/31 08:14:45;;;;;;;1.23;0.60;;;;;;;20.72;43.82;99479.13;5001749;28;97274;-82
2023/12/31 08:17:11;;;;;;;1.55;0.80;;;;;;;20.71;43.84;99475.63;5008170;28;108997;-82
2023/12/31 08:19:37;;;;;;;1.88;0.88;;;;;;;20.69;44.02;99469.53;5008967;28;96752;-82
2023/12/31 08:22:03;;;;;;;1.45;0.82;;;;;;;20.68;43.91;99467.84;5010674;28;96794;-82
2023/12/31 08:24:28;;;;;;;1.00;0.50;;;;;;;20.69;43.68;99460.75;5008521;28;98027;-82
2023/12/31 08:26:54;;;;;;;1.67;0.70;;;;;;;20.71;43.86;99461.50;5008260;28;120826;-82
2023/12/31 08:29:19;;;;;;;1.65;0.85;;;;;;;20.68;43.92;99462.53;4999982;28;100226;-82
2023/12/31 08:31:52;;;;;;;1.52;0.93;;;;;;;20.67;43.82;99460.81;4998676;28;112364;-82
2023/12/31 08:34:18;;;;;;;2.30;0.93;;;;;;;20.68;43.68;99465.19;5010063;28;99235;-82
2023/12/31 08:36:44;;;;;;;1.38;0.60;;;;;;;20.69;43.84;99461.59;5010407;28;96622;-82
2023/12/31 08:39:10;;;;;;;1.33;0.70;;;;;;;20.69;43.63;99458.09;4991507;28;98153;-82
2023/12/31 08:41:35;;;;;;;1.75;0.80;;;;;;;20.69;43.96;99455.44;4996411;28;98981;-82
2023/12/31 08:44:00;;;;;;;1.25;0.73;;;;;;;20.67;43.91;99444.91;4996339;28;96826;-82
2023/12/31 08:46:26;;;;;;;1.42;0.88;;;;;;;20.67;44.00;99460.81;5004627;28;97448;-82
2023/12/31 08:48:51;;;;;;;1.73;0.98;;;;;;;20.68;43.76;99465.19;5014653;28;96817;-82
2023/12/31 08:51:16;;;;;;;1.50;0.90;;;;;;;20.69;43.69;99450.13;4991506;28;104209;-82
2023/12/31 08:53:42;;;;;;;1.95;0.73;;;;;;;20.67;43.83;99452.88;5009902;28;115687;-82
2023/12/31 08:56:08;;;;;;;1.38;0.70;;;;;;;20.68;43.59;99451.09;5006242;28;97893;-82
2023/12/31 08:58:33;;;;;;;1.40;0.65;;;;;;;20.67;43.58;99458.16;4988844;28;97266;-82
2023/12/31 09:00:59;;;;;;;2.20;0.77;;;;;;;20.68;43.88;99454.59;5011384;28;97052;-82
2023/12/31 09:03:24;;;;;;;1.40;0.82;;;;;;;20.68;43.84;99462.53;5009723;28;97494;-82
2023/12/31 09:05:49;;;;;;;1.40;0.60;;;;;;;20.69;43.71;99450.97;5011150;28;96655;-82
2023/12/31 09:08:15;;;;;;;1.85;0.95;;;;;;;20.68;43.69;99451.94;4999780;28;97253;-82
2023/12/31 09:10:41;;;;;;;1.58;0.70;;;;;;;20.67;43.58;99444.06;4999369;28;96627;-82
2023/12/31 09:13:06;;;;;;;1.80;1.00;;;;;;;20.68;43.75;99437.84;5012032;28;97565;-82
2023/12/31 09:15:31;;;;;;;1.60;0.82;;;;;;;20.69;43.82;99458.09;5016683;28;107396;-82
2023/12/31 09:17:57;;;;;;;1.23;0.80;;;;;;;20.68;43.97;99462.53;4989003;28;99873;-82
2023/12/31 09:20:22;;;;;;;2.42;1.00;;;;;;;20.68;43.57;99449.28;5016448;28;97249;-82
2023/12/31 09:22:52;;;;;;;1.98;0.73;;;;;;;20.66;43.79;99451.16;5016488;28;119426;-81
2023/12/31 09:25:17;;;;;;;1.35;0.75;;;;;;;20.67;43.49;99459.97;5017817;28;97058;-82
2023/12/31 09:27:43;;;;;;;2.03;0.90;;;;;;;20.66;43.82;99461.75;5018173;28;103053;-82
2023/12/31 09:30:08;;;;;;;2.25;0.82;;;;;;;20.67;43.58;99467.91;5016397;28;96820;-82
2023/12/31 09:32:34;;;;;;;1.83;0.95;;;;;;;20.68;43.81;99480.25;5016797;28;97514;-82
2023/12/31 09:35:00;;;;;;;1.52;0.63;;;;;;;20.66;43.85;99490.91;5017046;28;96836;-82
2023/12/31 09:37:25;;;;;;;2.13;1.20;;;;;;;20.66;44.00;99477.66;5015951;28;116149;-82
2023/12/31 09:39:50;;;;;;;1.63;0.75;;;;;;;20.67;43.73;99479.34;5018305;28;96856;-82
2023/12/31 09:42:20;;;;;;;2.42;0.98;;;;;;;20.67;43.85;99476.72;5017430;28;97031;-82
2023/12/31 09:44:46;;;;;;;1.58;0.80;;;;;;;20.68;44.04;99496.97;5016411;28;96718;-82
2023/12/31 09:47:12;;;;;;;1.73;0.80;;;;;;;20.68;43.74;99483.72;5017799;28;104912;-82
2023/12/31 09:49:39;;;;;;;1.48;0.70;;;;;;;20.69;43.78;99497.81;5015234;28;97451;-82
2023/12/31 09:52:09;;;;;;;1.10;0.63;;;;;;;20.68;43.77;99491.69;5012412;28;96702;-82
2023/12/31 09:54:39;;;;;;;0.95;0.57;;;;;;;20.68;43.69;99490.84;5012633;28;96847;-82
2023/12/31 09:57:05;;;;;;;2.05;0.80;;;;;;;20.68;43.63;99486.38;5014990;28;96676;-82
2023/12/31 09:59:30;;;;;;;1.98;0.85;;;;;;;20.69;43.88;99484.59;5016742;28;96628;-82
2023/12/31 10:02:03;;;;;;;1.42;0.80;;;;;;;20.68;43.55;99490.84;5016426;28;97346;-82
2023/12/31 10:04:29;;;;;;;2.00;0.95;;;;;;;20.68;44.05;99496.97;5002861;28;98511;-82
2023/12/31 10:06:56;;;;;;;1.33;0.70;;;;;;;20.68;43.61;99491.69;5016468;28;96670;-82
2023/12/31 10:09:27;;;;;;;2.00;1.02;;;;;;;20.67;43.93;99497.06;5013578;28;97166;-82
2023/12/31 10:11:54;;;;;;;1.73;0.80;;;;;;;20.67;44.04;99495.25;5011065;28;96932;-82
2023/12/31 10:14:20;;;;;;;1.75;0.73;;;;;;;20.69;43.74;99487.22;5009557;28;96714;-83
2023/12/31 10:16:47;;;;;;;1.45;0.63;;;;;;;20.67;43.85;99484.66;5007663;28;96601;-82
2023/12/31 10:19:13;;;;;;;1.38;0.80;;;;;;;20.68;43.54;99490.84;5011908;28;96829;-82
2023/12/31 10:21:44;;;;;;;2.03;0.60;;;;;;;20.69;43.87;99479.28;5015267;28;96659;-82
2023/12/31 10:24:10;;;;;;;2.03;0.82;;;;;;;20.69;43.61;99482.78;5027220;28;98302;-82
2023/12/31 10:26:36;;;;;;;1.40;0.60;;;;;;;20.68;43.98;99481.09;5008024;28;97069;-82
2023/12/31 10:29:04;;;;;;;1.90;0.80;;;;;;;20.68;43.78;99470.47;4998223;28;99072;-81
2023/12/31 10:31:31;;;;;;;1.90;0.90;;;;;;;20.67;43.89;99482.00;5008951;28;96797;-82
2023/12/31 10:33:56;;;;;;;2.20;0.70;;;;;;;20.69;43.84;99471.34;5015952;28;97722;-82
2023/12/31 10:36:23;;;;;;;1.63;0.80;;;;;;;20.68;44.05;99481.09;5013989;28;115532;-82
2023/12/31 10:38:50;;;;;;;2.05;0.98;;;;;;;20.68;43.91;99478.44;4999123;28;97168;-82
2023/12/31 10:41:20;;;;;;;2.30;0.90;;;;;;;20.67;44.02;99483.81;5011294;28;96736;-82
2023/12/31 10:43:46;;;;;;;1.80;0.93;;;;;;;20.66;43.86;99472.34;5013379;28;97186;-82
2023/12/31 10:46:15;;;;;;;1.23;0.85;;;;;;;20.66;43.80;99484.72;5014793;28;96784;-82
2023/12/31 10:49:04;;;;;;;1.63;1.20;;;;;;;20.63;43.99;99483.09;5017074;28;96901;-82
2023/12/31 10:51:34;;;;;;;1.92;0.77;;;;;;;20.65;44.03;99470.63;5014382;28;97779;-82
2023/12/31 10:54:05;;;;;;;1.90;0.88;;;;;;;20.66;43.92;99476.78;5014106;28;97195;-82
2023/12/31 10:56:32;;;;;;;2.10;0.82;;;;;;;20.67;43.83;99481.16;5017711;28;97286;-81
2023/12/31 10:58:58;;;;;;;1.35;0.70;;;;;;;20.68;43.95;99485.53;5012747;28;96973;-82
2023/12/31 11:01:27;;;;;;;1.27;0.90;;;;;;;20.66;43.70;99464.41;5013918;28;97770;-82
2023/12/31 11:03:53;;;;;;;;;;;;;;;20.63;43.70;99475.16;5011611;28;96858;-82
2023/12/31 11:06:19;;;;;;;1.30;0.70;;;;;;;20.66;43.83;99461.75;5001296;28;96771;-82
2023/12/31 11:08:45;;;;;;;1.13;0.73;;;;;;;20.67;43.78;99468.75;5013006;28;96935;-82
2023/12/31 11:11:11;;;;;;;2.10;0.82;;;;;;;20.67;43.92;99463.47;5011573;28;96818;-82
2023/12/31 11:13:46;;;;;;;1.58;0.88;;;;;;;20.66;43.98;99484.72;5000696;28;98987;-82
2023/12/31 11:16:27;;;;;;;1.48;0.77;;;;;;;20.66;43.63;99480.31;5014857;28;97369;-82
2023/12/31 11:19:34;;;;;;;1.60;0.70;;;;;;;20.65;43.96;99483.88;5008834;28;96634;-82
2023/12/31 11:22:35;;;;;;;1.67;0.80;;;;;;;20.65;43.77;99468.00;5006359;28;98119;-82
2023/12/31 11:25:02;;;;;;;1.50;0.80;;;;;;;20.67;43.63;99473.22;5012351;28;97437;-82